sensor_id;sensor_type;location;lat;lon;timestamp;pressure;altitude;pressure_sealevel;temperature;humidity
59686;BME280;45554;51.096;16.976;2023-01-23T00:01:13;101827.05;;;2.21;85.76
59686;BME280;45554;51.096;16.976;2023-01-23T00:03:41;101822.37;;;2.22;85.88
59686;BME280;45554;51.096;16.976;2023-01-23T00:06:13;101826.19;;;2.24;85.83
59686;BME280;45554;51.096;16.976;2023-01-23T00:08:41;101828.79;;;2.25;85.83
59686;BME280;45554;51.096;16.976;2023-01-23T00:11:10;101834.52;;;2.27;85.94
59686;BME280;45554;51.096;16.976;2023-01-23T00:13:38;101840.06;;;2.32;86.11
59686;BME280;45554;51.096;16.976;2023-01-23T00:16:06;101841.63;;;2.34;85.77
59686;BME280;45554;51.096;16.976;2023-01-23T00:18:35;101840.24;;;2.32;85.69
59686;BME280;45554;51.096;16.976;2023-01-23T00:21:06;101837.48;;;2.32;85.68
59686;BME280;45554;51.096;16.976;2023-01-23T00:23:34;101835.39;;;2.30;85.48
59686;BME280;45554;51.096;16.976;2023-01-23T00:26:03;101836.40;;;2.27;85.45
59686;BME280;45554;51.096;16.976;2023-01-23T00:28:32;101833.45;;;2.26;85.69
59686;BME280;45554;51.096;16.976;2023-01-23T00:31:04;101835.18;;;2.23;85.41
59686;BME280;45554;51.096;16.976;2023-01-23T00:33:33;101832.58;;;2.21;85.51
59686;BME280;45554;51.096;16.976;2023-01-23T00:36:01;101834.64;;;2.19;85.52
59686;BME280;45554;51.096;16.976;2023-01-23T00:38:31;101834.80;;;2.18;85.67
59686;BME280;45554;51.096;16.976;2023-01-23T00:40:59;101832.21;;;2.17;85.68
59686;BME280;45554;51.096;16.976;2023-01-23T00:43:27;101839.48;;;2.16;85.68
59686;BME280;45554;51.096;16.976;2023-01-23T00:45:55;101843.10;;;2.15;85.78
59686;BME280;45554;51.096;16.976;2023-01-23T00:48:23;101851.38;;;2.11;85.62
59686;BME280;45554;51.096;16.976;2023-01-23T00:50:51;101852.23;;;2.10;85.79
59686;BME280;45554;51.096;16.976;2023-01-23T00:53:19;101855.19;;;2.11;86.14
59686;BME280;45554;51.096;16.976;2023-01-23T00:55:47;101857.96;;;2.12;85.88
59686;BME280;45554;51.096;16.976;2023-01-23T00:58:15;101855.37;;;2.13;85.89
59686;BME280;45554;51.096;16.976;2023-01-23T01:04:28;101861.63;;;2.18;86.03
59686;BME280;45554;51.096;16.976;2023-01-23T01:07:00;101869.61;;;2.24;86.19
59686;BME280;45554;51.096;16.976;2023-01-23T01:09:28;101869.98;;;2.28;85.97
59686;BME280;45554;51.096;16.976;2023-01-23T01:11:56;101871.54;;;2.28;85.78
59686;BME280;45554;51.096;16.976;2023-01-23T01:14:25;101865.30;;;2.26;85.70
59686;BME280;45554;51.096;16.976;2023-01-23T01:16:55;101867.02;;;2.24;85.60
59686;BME280;45554;51.096;16.976;2023-01-23T01:19:25;101864.39;;;2.17;85.41
59686;BME280;45554;51.096;16.976;2023-01-23T01:22:18;101869.54;;;2.10;85.71
59686;BME280;45554;51.096;16.976;2023-01-23T01:24:47;101871.61;;;2.07;85.76
59686;BME280;45554;51.096;16.976;2023-01-23T01:27:16;101869.50;;;2.04;86.00
59686;BME280;45554;51.096;16.976;2023-01-23T01:29:46;101867.41;;;2.01;85.89
59686;BME280;45554;51.096;16.976;2023-01-23T01:32:14;101871.56;;;2.01;86.04
59686;BME280;45554;51.096;16.976;2023-01-23T01:34:44;101874.84;;;2.00;85.92
59686;BME280;45554;51.096;16.976;2023-01-23T01:37:12;101879.52;;;2.01;86.05
59686;BME280;45554;51.096;16.976;2023-01-23T01:39:41;101877.45;;;2.01;86.16
59686;BME280;45554;51.096;16.976;2023-01-23T01:42:09;101876.23;;;2.00;85.99
59686;BME280;45554;51.096;16.976;2023-01-23T01:44:53;101878.80;;;1.98;86.10
59686;BME280;45554;51.096;16.976;2023-01-23T01:47:23;101879.66;;;1.97;86.00
59686;BME280;45554;51.096;16.976;2023-01-23T01:49:52;101884.30;;;1.92;86.03
59686;BME280;45554;51.096;16.976;2023-01-23T01:52:22;101893.97;;;1.90;86.29
59686;BME280;45554;51.096;16.976;2023-01-23T01:54:58;101903.47;;;1.88;86.33
59686;BME280;45554;51.096;16.976;2023-01-23T01:57:29;101906.40;;;1.87;86.25
59686;BME280;45554;51.096;16.976;2023-01-23T02:00:11;101911.25;;;1.89;86.48
59686;BME280;45554;51.096;16.976;2023-01-23T02:02:46;101919.08;;;1.95;86.59
59686;BME280;45554;51.096;16.976;2023-01-23T02:05:18;101913.39;;;1.97;86.49
59686;BME280;45554;51.096;16.976;2023-01-23T02:07:53;101923.45;;;2.01;86.52
59686;BME280;45554;51.096;16.976;2023-01-23T02:10:23;101921.89;;;2.02;86.38
59686;BME280;45554;51.096;16.976;2023-01-23T02:12:51;101926.04;;;2.01;86.36
59686;BME280;45554;51.096;16.976;2023-01-23T02:15:20;101929.63;;;1.97;86.13
59686;BME280;45554;51.096;16.976;2023-01-23T02:17:49;101933.27;;;1.96;86.40
59686;BME280;45554;51.096;16.976;2023-01-23T02:20:24;101931.88;;;1.95;86.48
59686;BME280;45554;51.096;16.976;2023-01-23T02:25:39;101933.42;;;1.93;86.24
59686;BME280;45554;51.096;16.976;2023-01-23T02:28:10;101937.73;;;1.94;86.71
59686;BME280;45554;51.096;16.976;2023-01-23T02:30:39;101941.23;;;1.98;86.73
59686;BME280;45554;51.096;16.976;2023-01-23T02:35:35;101941.62;;;2.03;86.62
59686;BME280;45554;51.096;16.976;2023-01-23T02:38:09;101947.32;;;2.02;86.59
59686;BME280;45554;51.096;16.976;2023-01-23T02:40:39;101951.83;;;2.04;86.73
59686;BME280;45554;51.096;16.976;2023-01-23T02:43:09;101953.55;;;2.05;86.55
59686;BME280;45554;51.096;16.976;2023-01-23T02:45:41;101948.73;;;2.07;86.62
59686;BME280;45554;51.096;16.976;2023-01-23T02:48:09;101946.14;;;2.06;86.41
59686;BME280;45554;51.096;16.976;2023-01-23T02:50:37;101950.64;;;2.06;86.52
59686;BME280;45554;51.096;16.976;2023-01-23T02:53:05;101949.09;;;2.08;86.54
59686;BME280;45554;51.096;16.976;2023-01-23T02:55:33;101945.81;;;2.10;86.61
59686;BME280;45554;51.096;16.976;2023-01-23T02:58:01;101951.34;;;2.10;86.43
59686;BME280;45554;51.096;16.976;2023-01-23T03:00:50;101957.40;;;2.09;86.50
59686;BME280;45554;51.096;16.976;2023-01-23T03:03:17;101961.03;;;2.09;86.43
59686;BME280;45554;51.096;16.976;2023-01-23T03:05:46;101963.25;;;2.06;86.33
59686;BME280;45554;51.096;16.976;2023-01-23T03:08:14;101965.48;;;2.01;86.27
59686;BME280;45554;51.096;16.976;2023-01-23T03:10:43;101966.46;;;1.96;86.30
59686;BME280;45554;51.096;16.976;2023-01-23T03:13:11;101966.77;;;1.90;86.05
59686;BME280;45554;51.096;16.976;2023-01-23T03:15:40;101963.63;;;1.87;86.50
59686;BME280;45554;51.096;16.976;2023-01-23T03:18:10;101963.26;;;1.84;86.58
59686;BME280;45554;51.096;16.976;2023-01-23T03:20:38;101960.12;;;1.81;86.68
59686;BME280;45554;51.096;16.976;2023-01-23T03:23:07;101961.17;;;1.83;87.05
59686;BME280;45554;51.096;16.976;2023-01-23T03:25:35;101965.69;;;1.86;87.00
59686;BME280;45554;51.096;16.976;2023-01-23T03:28:03;101967.11;;;1.91;87.31
59686;BME280;45554;51.096;16.976;2023-01-23T03:30:51;101975.27;;;1.94;86.96
59686;BME280;45554;51.096;16.976;2023-01-23T03:33:19;101977.17;;;1.93;86.82
59686;BME280;45554;51.096;16.976;2023-01-23T03:35:47;101981.67;;;1.94;86.92
59686;BME280;45554;51.096;16.976;2023-01-23T03:38:15;101981.34;;;1.96;87.02
59686;BME280;45554;51.096;16.976;2023-01-23T03:40:48;101979.44;;;1.98;87.01
59686;BME280;45554;51.096;16.976;2023-01-23T03:43:35;101979.64;;;2.00;87.06
59686;BME280;45554;51.096;16.976;2023-01-23T03:46:04;101977.95;;;2.04;86.96
59686;BME280;45554;51.096;16.976;2023-01-23T03:48:34;101976.95;;;2.10;87.03
59686;BME280;45554;51.096;16.976;2023-01-23T03:51:03;101975.58;;;2.11;86.94
59686;BME280;45554;51.096;16.976;2023-01-23T03:53:31;101978.34;;;2.11;86.83
59686;BME280;45554;51.096;16.976;2023-01-23T03:56:00;101979.74;;;2.14;87.08
59686;BME280;45554;51.096;16.976;2023-01-23T03:58:28;101984.95;;;2.15;86.79
59686;BME280;45554;51.096;16.976;2023-01-23T04:00:57;101985.99;;;2.16;86.81
59686;BME280;45554;51.096;16.976;2023-01-23T04:03:26;101988.61;;;2.18;86.96
59686;BME280;45554;51.096;16.976;2023-01-23T04:05:55;101983.25;;;2.21;86.63
59686;BME280;45554;51.096;16.976;2023-01-23T04:08:24;101978.92;;;2.18;86.35
59686;BME280;45554;51.096;16.976;2023-01-23T04:11:03;101978.73;;;2.18;86.46
59686;BME280;45554;51.096;16.976;2023-01-23T04:13:32;101975.46;;;2.20;86.73
59686;BME280;45554;51.096;16.976;2023-01-23T04:16:00;101971.48;;;2.19;86.28
59686;BME280;45554;51.096;16.976;2023-01-23T04:18:28;101970.42;;;2.16;86.50
59686;BME280;45554;51.096;16.976;2023-01-23T04:20:56;101970.95;;;2.16;86.69
59686;BME280;45554;51.096;16.976;2023-01-23T04:23:26;101973.70;;;2.15;86.55
59686;BME280;45554;51.096;16.976;2023-01-23T04:25:55;101978.67;;;2.10;86.06
59686;BME280;45554;51.096;16.976;2023-01-23T04:28:23;101977.96;;;2.05;86.35
59686;BME280;45554;51.096;16.976;2023-01-23T04:30:51;101976.18;;;2.00;86.18
59686;BME280;45554;51.096;16.976;2023-01-23T04:33:26;101975.64;;;1.96;86.29
59686;BME280;45554;51.096;16.976;2023-01-23T04:36:01;101973.02;;;1.95;86.62
59686;BME280;45554;51.096;16.976;2023-01-23T04:38:29;101969.76;;;1.96;86.62
59686;BME280;45554;51.096;16.976;2023-01-23T04:41:06;101967.85;;;1.96;86.38
59686;BME280;45554;51.096;16.976;2023-01-23T04:43:36;101973.02;;;1.95;86.54
59686;BME280;45554;51.096;16.976;2023-01-23T04:46:07;101973.39;;;1.96;86.81
59686;BME280;45554;51.096;16.976;2023-01-23T04:48:58;101977.36;;;1.97;86.68
59686;BME280;45554;51.096;16.976;2023-01-23T04:51:28;101984.11;;;1.98;86.73
59686;BME280;45554;51.096;16.976;2023-01-23T04:53:56;101988.93;;;1.94;86.41
59686;BME280;45554;51.096;16.976;2023-01-23T04:56:24;101991.33;;;1.91;86.70
59686;BME280;45554;51.096;16.976;2023-01-23T04:58:52;101996.36;;;1.91;86.73
59686;BME280;45554;51.096;16.976;2023-01-23T05:01:22;102000.69;;;1.93;87.13
59686;BME280;45554;51.096;16.976;2023-01-23T05:03:54;102005.20;;;1.95;86.64
59686;BME280;45554;51.096;16.976;2023-01-23T05:06:22;101999.52;;;1.98;86.89
59686;BME280;45554;51.096;16.976;2023-01-23T05:08:51;102001.95;;;2.01;86.83
59686;BME280;45554;51.096;16.976;2023-01-23T05:11:27;102008.20;;;2.03;86.49
59686;BME280;45554;51.096;16.976;2023-01-23T05:13:56;102018.91;;;2.02;86.44
59686;BME280;45554;51.096;16.976;2023-01-23T05:16:23;102019.77;;;2.01;86.57
59686;BME280;45554;51.096;16.976;2023-01-23T05:19:10;102022.02;;;2.00;86.56
59686;BME280;45554;51.096;16.976;2023-01-23T05:21:38;102022.16;;;1.98;86.53
59686;BME280;45554;51.096;16.976;2023-01-23T05:24:09;102024.89;;;1.93;86.38
59686;BME280;45554;51.096;16.976;2023-01-23T05:26:37;102030.07;;;1.92;86.68
59686;BME280;45554;51.096;16.976;2023-01-23T05:29:05;102036.98;;;1.91;86.57
59686;BME280;45554;51.096;16.976;2023-01-23T05:31:35;102037.49;;;1.90;86.53
59686;BME280;45554;51.096;16.976;2023-01-23T05:34:32;102042.83;;;1.87;86.60
59686;BME280;45554;51.096;16.976;2023-01-23T05:37:02;102044.39;;;1.89;86.94
59686;BME280;45554;51.096;16.976;2023-01-23T05:39:32;102048.05;;;1.91;86.79
59686;BME280;45554;51.096;16.976;2023-01-23T05:42:00;102050.16;;;1.95;86.84
59686;BME280;45554;51.096;16.976;2023-01-23T05:44:32;102053.63;;;1.97;86.86
59686;BME280;45554;51.096;16.976;2023-01-23T05:47:12;102060.06;;;2.00;86.84
59686;BME280;45554;51.096;16.976;2023-01-23T05:49:40;102053.50;;;2.02;86.83
59686;BME280;45554;51.096;16.976;2023-01-23T05:52:08;102055.40;;;2.01;86.34
59686;BME280;45554;51.096;16.976;2023-01-23T05:54:36;102056.42;;;2.00;86.42
59686;BME280;45554;51.096;16.976;2023-01-23T05:57:04;102057.62;;;1.98;86.49
59686;BME280;45554;51.096;16.976;2023-01-23T06:00:05;102060.69;;;1.94;86.35
59686;BME280;45554;51.096;16.976;2023-01-23T06:02:44;102067.41;;;1.91;86.52
59686;BME280;45554;51.096;16.976;2023-01-23T06:05:14;102073.14;;;1.93;86.70
59686;BME280;45554;51.096;16.976;2023-01-23T06:08:02;102075.06;;;1.95;86.39
59686;BME280;45554;51.096;16.976;2023-01-23T06:10:30;102081.27;;;1.93;86.55
59686;BME280;45554;51.096;16.976;2023-01-23T06:12:57;102083.48;;;1.90;86.53
59686;BME280;45554;51.096;16.976;2023-01-23T06:15:25;102079.13;;;1.87;86.49
59686;BME280;45554;51.096;16.976;2023-01-23T06:17:54;102079.30;;;1.87;86.80
59686;BME280;45554;51.096;16.976;2023-01-23T06:20:22;102084.66;;;1.87;86.95
59686;BME280;45554;51.096;16.976;2023-01-23T06:22:52;102093.18;;;1.91;86.77
59686;BME280;45554;51.096;16.976;2023-01-23T06:25:20;102094.92;;;1.92;86.40
59686;BME280;45554;51.096;16.976;2023-01-23T06:27:51;102104.80;;;1.94;86.49
59686;BME280;45554;51.096;16.976;2023-01-23T06:30:23;102106.67;;;1.92;86.17
59686;BME280;45554;51.096;16.976;2023-01-23T06:32:51;102108.06;;;1.92;86.36
59686;BME280;45554;51.096;16.976;2023-01-23T06:35:21;102107.88;;;1.91;86.34
59686;BME280;45554;51.096;16.976;2023-01-23T06:37:49;102113.72;;;1.89;86.23
59686;BME280;45554;51.096;16.976;2023-01-23T06:40:18;102117.71;;;1.90;86.75
59686;BME280;45554;51.096;16.976;2023-01-23T06:43:22;102127.27;;;1.92;86.44
59686;BME280;45554;51.096;16.976;2023-01-23T06:45:51;102132.77;;;1.91;86.38
59686;BME280;45554;51.096;16.976;2023-01-23T06:48:19;102134.34;;;1.91;86.65
59686;BME280;45554;51.096;16.976;2023-01-23T06:50:48;102137.81;;;1.94;86.61
59686;BME280;45554;51.096;16.976;2023-01-23T06:53:17;102144.02;;;1.93;86.54
59686;BME280;45554;51.096;16.976;2023-01-23T06:55:45;102148.88;;;1.94;86.68
59686;BME280;45554;51.096;16.976;2023-01-23T06:58:14;102155.50;;;1.98;86.69
59686;BME280;45554;51.096;16.976;2023-01-23T07:00:42;102155.70;;;2.00;86.49
59686;BME280;45554;51.096;16.976;2023-01-23T07:03:15;102154.15;;;2.00;86.42
59686;BME280;45554;51.096;16.976;2023-01-23T07:05:43;102158.64;;;2.00;86.77
59686;BME280;45554;51.096;16.976;2023-01-23T07:08:11;102156.92;;;2.01;86.95
59686;BME280;45554;51.096;16.976;2023-01-23T07:10:39;102151.77;;;2.05;87.13
59686;BME280;45554;51.096;16.976;2023-01-23T07:13:08;102148.86;;;2.09;86.84
59686;BME280;45554;51.096;16.976;2023-01-23T07:15:38;102151.16;;;2.13;86.74
59686;BME280;45554;51.096;16.976;2023-01-23T07:18:08;102156.04;;;2.16;86.51
59686;BME280;45554;51.096;16.976;2023-01-23T07:20:36;102156.24;;;2.19;86.75
59686;BME280;45554;51.096;16.976;2023-01-23T07:23:05;102161.96;;;2.21;86.44
59686;BME280;45554;51.096;16.976;2023-01-23T07:25:33;102170.13;;;2.24;86.55
59686;BME280;45554;51.096;16.976;2023-01-23T07:28:01;102166.87;;;2.27;86.51
59686;BME280;45554;51.096;16.976;2023-01-23T07:30:29;102172.41;;;2.29;86.35
59686;BME280;45554;51.096;16.976;2023-01-23T07:32:57;102171.38;;;2.28;85.98
59686;BME280;45554;51.096;16.976;2023-01-23T07:35:28;102172.06;;;2.26;85.91
59686;BME280;45554;51.096;16.976;2023-01-23T07:37:56;102178.23;;;2.21;85.72
59686;BME280;45554;51.096;16.976;2023-01-23T07:40:25;102178.52;;;2.15;85.70
59686;BME280;45554;51.096;16.976;2023-01-23T07:42:55;102180.91;;;2.14;85.90
59686;BME280;45554;51.096;16.976;2023-01-23T07:45:23;102179.34;;;2.13;85.79
59686;BME280;45554;51.096;16.976;2023-01-23T07:47:51;102180.05;;;2.13;85.89
59686;BME280;45554;51.096;16.976;2023-01-23T07:50:19;102183.51;;;2.13;85.79
59686;BME280;45554;51.096;16.976;2023-01-23T07:52:48;102180.54;;;2.10;85.81
59686;BME280;45554;51.096;16.976;2023-01-23T07:55:17;102188.86;;;2.12;85.81
59686;BME280;45554;51.096;16.976;2023-01-23T07:57:45;102189.39;;;2.12;85.76
59686;BME280;45554;51.096;16.976;2023-01-23T08:00:13;102190.90;;;2.10;85.80
59686;BME280;45554;51.096;16.976;2023-01-23T08:02:41;102194.22;;;2.12;85.95
59686;BME280;45554;51.096;16.976;2023-01-23T08:05:09;102195.26;;;2.12;85.77
59686;BME280;45554;51.096;16.976;2023-01-23T08:07:39;102192.11;;;2.09;85.56
59686;BME280;45554;51.096;16.976;2023-01-23T08:10:08;102190.73;;;2.08;85.59
59686;BME280;45554;51.096;16.976;2023-01-23T08:12:38;102194.53;;;2.08;85.93
59686;BME280;45554;51.096;16.976;2023-01-23T08:15:06;102194.73;;;2.11;85.95
59686;BME280;45554;51.096;16.976;2023-01-23T08:17:35;102190.93;;;2.12;85.63
59686;BME280;45554;51.096;16.976;2023-01-23T08:20:03;102186.40;;;2.08;85.61
59686;BME280;45554;51.096;16.976;2023-01-23T08:22:31;102185.23;;;2.11;85.66
59686;BME280;45554;51.096;16.976;2023-01-23T08:25:03;102187.86;;;2.16;85.72
59686;BME280;45554;51.096;16.976;2023-01-23T08:27:31;102197.65;;;2.26;85.72
59686;BME280;45554;51.096;16.976;2023-01-23T08:30:05;102197.19;;;2.30;85.55
59686;BME280;45554;51.096;16.976;2023-01-23T08:32:36;102190.65;;;2.36;85.81
59686;BME280;45554;51.096;16.976;2023-01-23T08:35:04;102192.45;;;2.43;85.73
59686;BME280;45554;51.096;16.976;2023-01-23T08:37:32;102198.90;;;2.47;85.16
59686;BME280;45554;51.096;16.976;2023-01-23T08:40:01;102196.29;;;2.44;84.86
59686;BME280;45554;51.096;16.976;2023-01-23T08:42:29;102195.22;;;2.42;84.93
59686;BME280;45554;51.096;16.976;2023-01-23T08:44:57;102189.15;;;2.41;85.06
59686;BME280;45554;51.096;16.976;2023-01-23T08:47:25;102191.59;;;2.44;85.28
59686;BME280;45554;51.096;16.976;2023-01-23T08:49:57;102197.39;;;2.51;85.34
59686;BME280;45554;51.096;16.976;2023-01-23T08:52:27;102204.88;;;2.57;85.03
59686;BME280;45554;51.096;16.976;2023-01-23T08:54:56;102204.55;;;2.58;84.75
59686;BME280;45554;51.096;16.976;2023-01-23T08:57:24;102208.02;;;2.59;84.72
59686;BME280;45554;51.096;16.976;2023-01-23T08:59:53;102207.64;;;2.56;84.47
59686;BME280;45554;51.096;16.976;2023-01-23T09:02:21;102209.38;;;2.57;84.79
59686;BME280;45554;51.096;16.976;2023-01-23T09:04:49;102208.38;;;2.61;85.01
59686;BME280;45554;51.096;16.976;2023-01-23T09:11:18;102213.91;;;2.60;84.36
59686;BME280;45554;51.096;16.976;2023-01-23T09:14:22;102215.13;;;2.60;84.62
59686;BME280;45554;51.096;16.976;2023-01-23T09:21:44;102217.70;;;2.58;84.53
59686;BME280;45554;51.096;16.976;2023-01-23T09:24:57;102218.37;;;2.55;84.27
59686;BME280;45554;51.096;16.976;2023-01-23T09:27:47;102218.52;;;2.54;84.44
59686;BME280;45554;51.096;16.976;2023-01-23T09:30:22;102220.48;;;2.58;84.51
59686;BME280;45554;51.096;16.976;2023-01-23T09:33:03;102222.73;;;2.60;84.39
59686;BME280;45554;51.096;16.976;2023-01-23T09:36:21;102219.48;;;2.64;84.64
59686;BME280;45554;51.096;16.976;2023-01-23T09:39:08;102221.08;;;2.68;84.36
59686;BME280;45554;51.096;16.976;2023-01-23T09:41:37;102218.16;;;2.72;84.58
59686;BME280;45554;51.096;16.976;2023-01-23T09:44:17;102219.40;;;2.76;84.66
59686;BME280;45554;51.096;16.976;2023-01-23T09:46:52;102217.55;;;2.80;84.49
59686;BME280;45554;51.096;16.976;2023-01-23T09:52:00;102218.09;;;2.84;84.13
59686;BME280;45554;51.096;16.976;2023-01-23T09:54:40;102221.56;;;2.85;84.35
59686;BME280;45554;51.096;16.976;2023-01-23T09:57:13;102225.23;;;2.88;84.17
59686;BME280;45554;51.096;16.976;2023-01-23T09:59:44;102224.86;;;2.85;83.97
59686;BME280;45554;51.096;16.976;2023-01-23T10:02:27;102219.16;;;2.88;84.13
59686;BME280;45554;51.096;16.976;2023-01-23T10:04:57;102219.38;;;2.92;84.04
59686;BME280;45554;51.096;16.976;2023-01-23T10:21:16;102218.63;;;3.06;83.38
59686;BME280;45554;51.096;16.976;2023-01-23T10:26:35;102214.75;;;2.98;83.20
59686;BME280;45554;51.096;16.976;2023-01-23T10:31:54;102205.38;;;2.96;83.14
59686;BME280;45554;51.096;16.976;2023-01-23T10:34:28;102202.09;;;2.97;83.24
59686;BME280;45554;51.096;16.976;2023-01-23T10:39:53;102198.36;;;3.08;83.41
59686;BME280;45554;51.096;16.976;2023-01-23T10:42:25;102194.26;;;3.15;83.37
59686;BME280;45554;51.096;16.976;2023-01-23T10:44:56;102190.30;;;3.21;83.19
59686;BME280;45554;51.096;16.976;2023-01-23T10:50:00;102194.12;;;3.21;82.59
59686;BME280;45554;51.096;16.976;2023-01-23T10:54:57;102194.23;;;3.13;82.38
59686;BME280;45554;51.096;16.976;2023-01-23T10:57:29;102197.86;;;3.12;82.67
59686;BME280;45554;51.096;16.976;2023-01-23T10:59:58;102197.00;;;3.13;82.60
59686;BME280;45554;51.096;16.976;2023-01-23T11:02:31;102195.14;;;3.19;82.67
59686;BME280;45554;51.096;16.976;2023-01-23T11:04:59;102193.77;;;3.21;82.79
59686;BME280;45554;51.096;16.976;2023-01-23T11:07:29;102192.39;;;3.24;82.55
59686;BME280;45554;51.096;16.976;2023-01-23T11:09:58;102192.75;;;3.25;82.35
59686;BME280;45554;51.096;16.976;2023-01-23T11:15:18;102191.15;;;3.20;82.26
59686;BME280;45554;51.096;16.976;2023-01-23T11:17:53;102186.63;;;3.15;82.21
59686;BME280;45554;51.096;16.976;2023-01-23T11:20:35;102183.64;;;3.12;82.15
59686;BME280;45554;51.096;16.976;2023-01-23T11:25:40;102179.86;;;3.13;82.93
59686;BME280;45554;51.096;16.976;2023-01-23T11:31:26;102176.45;;;3.25;82.34
59686;BME280;45554;51.096;16.976;2023-01-23T11:39:15;102173.45;;;3.14;81.84
59686;BME280;45554;51.096;16.976;2023-01-23T11:41:46;102176.75;;;3.15;82.30
59686;BME280;45554;51.096;16.976;2023-01-23T11:44:21;102173.14;;;3.18;82.47
59686;BME280;45554;51.096;16.976;2023-01-23T11:52:07;102172.23;;;3.14;82.24
59686;BME280;45554;51.096;16.976;2023-01-23T11:57:35;102183.36;;;3.20;82.29
59686;BME280;45554;51.096;16.976;2023-01-23T12:00:16;102182.15;;;3.20;82.28
59686;BME280;45554;51.096;16.976;2023-01-23T12:03:09;102179.54;;;3.17;81.90
59686;BME280;45554;51.096;16.976;2023-01-23T12:05:48;102172.56;;;3.12;81.77
59686;BME280;45554;51.096;16.976;2023-01-23T12:08:25;102170.68;;;3.15;82.46
59686;BME280;45554;51.096;16.976;2023-01-23T12:11:11;102165.34;;;3.20;82.27
59686;BME280;45554;51.096;16.976;2023-01-23T12:13:55;102162.42;;;3.24;82.45
59686;BME280;45554;51.096;16.976;2023-01-23T12:21:43;102160.34;;;3.22;81.68
59686;BME280;45554;51.096;16.976;2023-01-23T12:24:18;102158.08;;;3.22;82.05
59686;BME280;45554;51.096;16.976;2023-01-23T12:39:59;102160.88;;;2.98;81.58
59686;BME280;45554;51.096;16.976;2023-01-23T12:42:31;102159.64;;;2.95;82.07
59686;BME280;45554;51.096;16.976;2023-01-23T12:48:08;102159.95;;;2.91;81.76
59686;BME280;45554;51.096;16.976;2023-01-23T12:50:52;102157.33;;;2.86;82.17
59686;BME280;45554;51.096;16.976;2023-01-23T12:53:23;102159.60;;;2.90;82.40
59686;BME280;45554;51.096;16.976;2023-01-23T12:58:28;102157.05;;;2.96;82.71
59686;BME280;45554;51.096;16.976;2023-01-23T13:06:35;102164.42;;;3.11;82.38
59686;BME280;45554;51.096;16.976;2023-01-23T13:09:23;102163.22;;;3.13;82.33
59686;BME280;45554;51.096;16.976;2023-01-23T13:12:07;102166.15;;;3.10;82.02
59686;BME280;45554;51.096;16.976;2023-01-23T13:15:35;102165.25;;;3.04;82.05
59686;BME280;45554;51.096;16.976;2023-01-23T13:23:17;102166.60;;;3.00;81.94
59686;BME280;45554;51.096;16.976;2023-01-23T13:25:46;102168.99;;;2.94;82.33
59686;BME280;45554;51.096;16.976;2023-01-23T13:28:33;102170.38;;;2.96;82.40
59686;BME280;45554;51.096;16.976;2023-01-23T13:33:58;102174.88;;;2.95;82.49
59686;BME280;45554;51.096;16.976;2023-01-23T13:36:48;102175.92;;;2.95;82.66
59686;BME280;45554;51.096;16.976;2023-01-23T13:41:50;102174.74;;;3.00;82.60
59686;BME280;45554;51.096;16.976;2023-01-23T13:44:23;102174.88;;;2.95;82.03
59686;BME280;45554;51.096;16.976;2023-01-23T13:50:33;102178.74;;;2.80;82.10
59686;BME280;45554;51.096;16.976;2023-01-23T13:53:18;102178.50;;;2.69;82.21
59686;BME280;45554;51.096;16.976;2023-01-23T13:56:20;102180.72;;;2.65;82.15
59686;BME280;45554;51.096;16.976;2023-01-23T13:59:28;102182.42;;;2.62;82.78
59686;BME280;45554;51.096;16.976;2023-01-23T14:02:17;102181.04;;;2.62;82.92
59686;BME280;45554;51.096;16.976;2023-01-23T14:05:21;102181.91;;;2.64;82.98
59686;BME280;45554;51.096;16.976;2023-01-23T14:08:11;102184.86;;;2.63;83.05
59686;BME280;45554;51.096;16.976;2023-01-23T14:10:55;102184.34;;;2.66;83.06
59686;BME280;45554;51.096;16.976;2023-01-23T14:13:36;102188.35;;;2.66;83.00
59686;BME280;45554;51.096;16.976;2023-01-23T14:16:17;102191.61;;;2.64;82.74
59686;BME280;45554;51.096;16.976;2023-01-23T14:19:04;102192.60;;;2.58;82.87
59686;BME280;45554;51.096;16.976;2023-01-23T14:21:50;102192.73;;;2.55;82.69
59686;BME280;45554;51.096;16.976;2023-01-23T14:24:21;102194.79;;;2.52;82.93
59686;BME280;45554;51.096;16.976;2023-01-23T14:26:51;102197.19;;;2.49;83.08
59686;BME280;45554;51.096;16.976;2023-01-23T14:29:22;102199.21;;;2.44;82.94
59686;BME280;45554;51.096;16.976;2023-01-23T14:31:52;102204.38;;;2.39;83.04
59686;BME280;45554;51.096;16.976;2023-01-23T14:34:21;102208.01;;;2.40;83.18
59686;BME280;45554;51.096;16.976;2023-01-23T14:36:50;102208.36;;;2.41;83.30
59686;BME280;45554;51.096;16.976;2023-01-23T14:39:22;102210.08;;;2.39;83.39
59686;BME280;45554;51.096;16.976;2023-01-23T14:41:53;102210.40;;;2.37;83.57
59686;BME280;45554;51.096;16.976;2023-01-23T14:44:23;102212.46;;;2.35;83.33
59686;BME280;45554;51.096;16.976;2023-01-23T14:46:53;102209.52;;;2.34;83.68
59686;BME280;45554;51.096;16.976;2023-01-23T14:49:25;102205.17;;;2.33;83.68
59686;BME280;45554;51.096;16.976;2023-01-23T14:51:54;102207.73;;;2.31;83.53
59686;BME280;45554;51.096;16.976;2023-01-23T14:54:22;102206.84;;;2.28;83.64
59686;BME280;45554;51.096;16.976;2023-01-23T14:56:52;102207.71;;;2.27;83.62
59686;BME280;45554;51.096;16.976;2023-01-23T14:59:27;102208.77;;;2.29;83.93
59686;BME280;45554;51.096;16.976;2023-01-23T15:01:56;102207.27;;;2.34;84.04
59686;BME280;45554;51.096;16.976;2023-01-23T15:04:25;102210.91;;;2.37;83.93
59686;BME280;45554;51.096;16.976;2023-01-23T15:06:55;102208.14;;;2.35;83.60
59686;BME280;45554;51.096;16.976;2023-01-23T15:09:27;102212.60;;;2.32;83.64
59686;BME280;45554;51.096;16.976;2023-01-23T15:12:06;102217.08;;;2.30;83.73